Time;durP1;ratioP1;P1;durP2;ratioP2;P2;SDS_P1;SDS_P2;PMS_P1;PMS_P2;Temp;Humidity;BMP_temperature;BMP_pressure;BME280_temperature;BME280_humidity;BME280_pressure;Samples;Min_cycle;Max_cycle;Signal;HPM_P1;HPM_P2
2021/05/14 00:02:03;;;;;;;81.38;29.75;;;;;;;9.71;100.00;99935.34;4931670;28;20089;-79
2021/05/14 00:04:26;;;;;;;74.78;26.52;;;11.10;99.90;;;9.63;100.00;99927.03;4931924;28;20074;-78
2021/05/14 00:06:50;;;;;;;76.55;28.85;;;11.00;99.90;;;9.63;100.00;99916.50;4930939;28;20047;-79
2021/05/14 00:09:14;;;;;;;76.07;27.42;;;11.00;99.90;;;9.63;100.00;99919.13;4931686;28;20513;-79
2021/05/14 00:11:36;;;;;;;62.13;24.98;;;11.00;99.90;;;9.58;100.00;99924.66;4930603;28;20082;-81
2021/05/14 00:13:59;;;;;;;62.75;25.48;;;;;;;9.55;100.00;99916.09;4947537;28;20063;-80
2021/05/14 00:16:22;;;;;;;68.95;26.95;;;11.00;99.90;;;9.54;100.00;99923.13;4931249;28;20056;-81
2021/05/14 00:18:46;;;;;;;66.47;27.58;;;10.90;99.90;;;9.53;100.00;99910.94;4931297;28;20047;-80
2021/05/14 00:21:09;;;;;;;72.60;27.13;;;;;;;9.53;100.00;99916.19;4932688;28;20056;-79
2021/05/14 00:23:32;;;;;;;70.50;25.25;;;11.00;99.90;;;9.54;100.00;99912.63;4930096;28;20078;-80
2021/05/14 00:25:55;;;;;;;67.30;25.83;;;11.00;99.90;;;9.54;100.00;99917.88;4930564;28;20128;-78
2021/05/14 00:28:18;;;;;;;72.78;27.48;;;10.90;99.90;;;9.54;100.00;99923.13;4928871;28;20418;-79
2021/05/14 00:30:40;;;;;;;74.55;27.35;;;11.00;99.90;;;9.56;100.00;99921.25;4945276;28;20090;-79
2021/05/14 00:33:04;;;;;;;76.70;28.58;;;;;;;9.55;100.00;99922.22;4933250;28;20097;-80
2021/05/14 00:35:27;;;;;;;80.90;27.60;;;10.90;99.90;;;9.55;100.00;99916.09;4930884;28;20078;-79
2021/05/14 00:37:50;;;;;;;73.97;26.20;;;10.90;99.90;;;9.52;100.00;99914.47;4929643;28;20078;-79
2021/05/14 00:40:14;;;;;;;70.47;25.80;;;10.90;99.90;;;9.52;100.00;99924.97;4928955;28;20047;-80
2021/05/14 00:42:37;;;;;;;70.70;26.45;;;10.90;99.90;;;9.51;100.00;99912.78;4929238;28;20040;-80
2021/05/14 00:45:00;;;;;;;87.88;28.77;;;10.90;99.90;;;9.53;100.00;99917.97;4930104;28;20081;-80
2021/05/14 00:47:23;;;;;;;87.13;28.52;;;10.90;99.90;;;9.52;100.00;99918.88;4930120;28;20048;-80
2021/05/14 00:49:47;;;;;;;81.20;27.25;;;10.90;99.90;;;9.49;100.00;99914.66;4931613;28;20052;-80
2021/05/14 00:52:14;;;;;;;78.85;28.98;;;10.90;99.90;;;9.48;100.00;99910.34;4931305;28;20048;-80
2021/05/14 00:54:38;;;;;;;86.88;26.77;;;10.90;99.90;;;9.49;100.00;99909.41;4930927;28;20051;-78
2021/05/14 00:57:01;;;;;;;82.13;29.13;;;10.90;99.90;;;9.50;100.00;99915.50;4930308;28;20576;-80
2021/05/14 00:59:24;;;;;;;82.65;27.67;;;10.90;99.90;;;9.52;100.00;99911.00;4929314;28;20055;-78
2021/05/14 01:01:47;;;;;;;85.93;28.15;;;11.80;99.90;;;9.52;100.00;99911.00;4921944;28;20063;-80
2021/05/14 01:04:11;;;;;;;92.30;28.75;;;;;;;9.52;100.00;99911.00;4934551;28;20056;-80
2021/05/14 01:06:34;;;;;;;86.57;29.17;;;10.90;99.90;;;9.53;100.00;99904.84;4930041;28;20044;-80
2021/05/14 01:09:00;;;;;;;94.30;28.55;;;10.90;99.90;;;9.52;100.00;99898.72;4930582;28;20056;-80
2021/05/14 01:11:23;;;;;;;75.78;27.33;;;10.90;99.90;;;9.53;100.00;99900.41;4929573;28;20040;-78
2021/05/14 01:13:46;;;;;;;74.82;28.50;;;10.90;99.90;;;9.53;100.00;99900.41;4930249;28;24830;-80
2021/05/14 01:16:08;;;;;;;82.38;30.20;;;10.90;99.90;;;9.53;100.00;99899.56;4930898;28;20086;-80
2021/05/14 01:18:31;;;;;;;80.63;29.80;;;10.90;99.90;;;9.51;100.00;99902.28;4929817;28;20051;-80
2021/05/14 01:20:55;;;;;;;75.20;28.90;;;10.90;99.90;;;9.50;100.00;99897.09;4929919;28;20048;-79
2021/05/14 01:23:18;;;;;;;82.95;29.75;;;10.90;99.90;;;9.50;100.00;99900.56;4931144;28;20100;-80
2021/05/14 01:25:41;;;;;;;77.68;30.52;;;10.90;99.90;;;9.48;100.00;99897.22;4933340;28;20574;-80
2021/05/14 01:28:04;;;;;;;71.35;28.52;;;10.90;99.90;;;9.48;100.00;99897.22;4932490;28;20051;-79
2021/05/14 01:30:27;;;;;;;72.13;28.30;;;10.90;99.90;;;9.48;100.00;99897.22;4933195;28;20089;-80
2021/05/14 01:32:51;;;;;;;66.90;27.15;;;10.90;99.90;;;9.47;100.00;99892.88;4934145;28;20059;-80
2021/05/14 01:35:13;;;;;;;71.18;27.17;;;10.90;99.90;;;9.48;100.00;99893.72;4932568;28;20104;-77
2021/05/14 01:37:41;;;;;;;77.53;29.20;;;;;;;9.49;100.00;99898.88;4933700;28;20086;-82
2021/05/14 01:40:06;;;;;;;78.18;29.75;;;10.90;99.90;;;9.45;100.00;99892.09;4932861;28;20036;-79
2021/05/14 01:42:29;;;;;;;72.10;29.17;;;10.90;99.90;;;9.44;100.00;99900.94;4917019;28;20048;-80
2021/05/14 01:44:52;;;;;;;79.53;29.63;;;10.90;99.90;;;9.42;100.00;99901.00;4933583;28;20036;-79
2021/05/14 01:47:18;;;;;;;70.63;30.95;;;10.80;99.90;;;9.37;100.00;99899.56;4933980;28;20398;-80
2021/05/14 01:49:40;;;;;;;75.47;31.63;;;10.80;99.90;;;9.35;100.00;99898.78;4930085;28;20070;-80
2021/05/14 01:52:04;;;;;;;75.95;28.98;;;10.80;99.90;;;9.33;100.00;99903.28;4932355;28;20075;-81
2021/05/14 01:54:28;;;;;;;77.13;30.35;;;10.70;99.90;;;9.33;100.00;99901.53;4925308;28;20052;-80
2021/05/14 01:56:52;;;;;;;68.53;29.58;;;10.70;99.90;;;9.26;100.00;99901.94;4932649;28;20082;-78
2021/05/14 01:59:15;;;;;;;71.63;28.92;;;10.60;99.90;;;9.13;100.00;99905.19;4932207;28;20498;-78
2021/05/14 02:01:38;;;;;;;74.25;32.08;;;10.50;99.90;;;9.00;100.00;99891.88;4933697;28;20143;-80
2021/05/14 02:04:00;;;;;;;82.07;34.03;;;10.30;99.90;;;8.83;100.00;99899.81;4932598;28;20129;-79
2021/05/14 02:06:23;;;;;;;73.20;31.50;;;10.20;99.90;;;8.68;100.00;99906.69;4932773;28;20090;-80
2021/05/14 02:08:46;;;;;;;78.57;34.20;;;10.10;99.90;;;8.54;100.00;99903.97;4933994;28;20441;-78
2021/05/14 02:11:10;;;;;;;69.75;30.75;;;9.90;99.90;;;8.40;100.00;99902.88;4931616;28;20082;-77
2021/05/14 02:13:33;;;;;;;75.63;33.85;;;9.70;99.90;;;8.21;100.00;99896.84;4932558;28;20476;-85
2021/05/14 02:15:56;;;;;;;78.72;33.15;;;9.60;99.90;;;8.15;100.00;99897.13;4933282;28;20091;-78
2021/05/14 02:18:19;;;;;;;73.65;34.00;;;9.60;99.90;;;8.02;100.00;99902.97;4933375;28;20531;-80
2021/05/14 02:20:42;;;;;;;88.43;36.45;;;9.50;99.90;;;7.98;100.00;99900.59;4931481;28;20457;-79
2021/05/14 02:23:05;;;;;;;78.95;36.15;;;9.40;99.90;;;7.90;100.00;99908.81;4933250;28;20075;-79
2021/05/14 02:25:28;;;;;;;91.30;38.63;;;9.40;99.90;;;7.85;100.00;99900.34;4933616;28;20508;-79
2021/05/14 02:27:52;;;;;;;84.25;36.22;;;;;;;7.80;100.00;99904.97;4931530;28;20122;-79
2021/05/14 02:30:18;;;;;;;88.97;38.20;;;9.30;99.90;;;7.83;100.00;99902.19;4933194;28;20089;-82
2021/05/14 02:32:41;;;;;;;92.63;38.08;;;;;;;7.92;100.00;99906.97;4930503;28;20545;-78
2021/05/14 02:35:06;;;;;;;87.28;35.30;;;9.40;99.90;;;7.98;100.00;99908.44;4933205;28;20138;-79
2021/05/14 02:37:28;;;;;;;77.20;34.90;;;9.40;99.90;;;7.97;100.00;99899.75;4931630;28;20079;-80
2021/05/14 02:39:51;;;;;;;82.45;35.00;;;9.40;99.90;;;7.94;100.00;99905.13;4933621;28;20469;-80
2021/05/14 02:42:15;;;;;;;82.95;36.25;;;9.40;99.90;;;7.96;100.00;99897.19;4929176;28;20542;-80
2021/05/14 02:44:38;;;;;;;88.10;37.72;;;9.50;99.90;;;8.00;100.00;99907.44;4933031;28;20522;-81
2021/05/14 02:47:01;;;;;;;98.25;41.92;;;9.50;99.90;;;8.02;100.00;99904.75;4931249;28;20136;-80
2021/05/14 02:49:25;;;;;;;98.95;40.72;;;9.50;99.90;;;8.01;100.00;99905.66;4933674;28;20086;-80
2021/05/14 02:51:48;;;;;;;82.28;37.20;;;9.50;99.90;;;8.01;100.00;99903.03;4929864;28;20088;-78
2021/05/14 02:54:11;;;;;;;85.88;34.65;;;9.50;99.90;;;7.99;100.00;99905.75;4931924;28;20079;-79
2021/05/14 02:56:34;;;;;;;98.53;39.33;;;9.50;99.90;;;8.00;100.00;99899.59;4933177;28;20083;-81
2021/05/14 02:58:57;;;;;;;92.28;36.33;;;9.50;99.90;;;8.06;100.00;99901.06;4932390;28;20079;-82
2021/05/14 03:01:21;;;;;;;85.72;36.38;;;;;;;8.06;100.00;99898.44;4931914;28;20087;-81
2021/05/14 03:03:43;;;;;;;93.72;38.10;;;9.50;99.90;;;8.05;100.00;99899.34;4932403;28;20530;-79
2021/05/14 03:06:06;;;;;;;92.85;37.47;;;9.50;99.90;;;8.08;100.00;99906.22;4933013;28;20084;-81
2021/05/14 03:08:30;;;;;;;92.65;37.75;;;9.60;99.90;;;8.10;100.00;99900.00;4932798;28;20091;-79
2021/05/14 03:10:53;;;;;;;99.07;38.22;;;9.60;99.90;;;8.13;100.00;99899.00;4931423;28;20128;-80
2021/05/14 03:13:16;;;;;;;89.90;37.28;;;9.60;99.90;;;8.16;100.00;99898.81;4932445;28;20083;-80
2021/05/14 03:15:39;;;;;;;91.68;36.60;;;9.60;99.90;;;8.18;100.00;99899.59;4932124;28;20132;-79
2021/05/14 03:18:03;;;;;;;98.25;39.80;;;;;;;8.21;100.00;99902.09;4931888;28;20072;-79
2021/05/14 03:20:26;;;;;;;105.22;38.88;;;9.70;99.90;;;8.23;100.00;99910.72;4932799;28;20087;-81
2021/05/14 03:22:49;;;;;;;92.57;37.47;;;9.70;99.90;;;8.26;100.00;99905.31;4931436;28;20434;-80
2021/05/14 03:25:13;;;;;;;105.75;40.38;;;9.70;99.90;;;8.29;100.00;99906.94;4932878;28;20091;-80
2021/05/14 03:27:36;;;;;;;102.68;39.80;;;9.80;99.90;;;8.31;100.00;99905.91;4927963;28;20426;-78
2021/05/14 03:29:59;;;;;;;99.90;35.85;;;9.80;99.90;;;8.32;100.00;99898.94;4932718;28;20121;-79
2021/05/14 03:32:22;;;;;;;94.20;35.72;;;9.70;99.90;;;8.28;100.00;99908.72;4931427;28;20087;-79
2021/05/14 03:34:46;;;;;;;101.65;37.28;;;9.70;99.90;;;8.24;100.00;99903.69;4932319;28;20080;-80
2021/05/14 03:37:09;;;;;;;97.57;37.42;;;9.70;99.90;;;8.24;100.00;99908.94;4930015;28;20446;-80
2021/05/14 03:39:38;;;;;;;93.93;35.88;;;9.70;99.90;;;8.27;100.00;99904.41;4931700;28;20087;-78
2021/05/14 03:42:14;;;;;;;94.97;34.95;;;9.70;99.90;;;8.31;100.00;99898.06;4931533;28;20085;-80
2021/05/14 03:44:37;;;;;;;93.88;34.83;;;9.70;99.90;;;8.35;100.00;99902.22;4929681;28;20083;-78
2021/05/14 03:47:03;;;;;;;91.20;34.88;;;9.80;99.90;;;8.39;100.00;99906.38;4931423;28;20581;-79
2021/05/14 03:49:27;;;;;;;89.15;35.97;;;9.80;99.90;;;8.40;100.00;99905.50;4931044;28;20075;-78
2021/05/14 03:51:51;;;;;;;89.82;33.72;;;9.90;99.90;;;8.44;100.00;99903.56;4928607;28;20536;-78
2021/05/14 03:54:14;;;;;;;86.90;33.55;;;9.90;99.90;;;8.50;100.00;99907.66;4930046;28;20087;-79
2021/05/14 03:56:37;;;;;;;87.38;35.67;;;10.00;99.90;;;8.51;100.00;99898.84;4932612;28;20446;-80
2021/05/14 03:59:01;;;;;;;83.40;34.40;;;10.00;99.90;;;8.61;100.00;99900.06;4931290;28;20087;-78
2021/05/14 04:01:24;;;;;;;78.72;34.35;;;10.10;99.90;;;8.65;100.00;99912.13;4931886;28;21741;-79
2021/05/14 04:03:46;;;;;;;83.63;35.92;;;10.20;99.90;;;8.74;100.00;99909.00;4928132;28;20518;-80
2021/05/14 04:06:09;;;;;;;87.72;34.33;;;10.20;99.90;;;8.73;100.00;99907.31;4931068;28;20071;-78
2021/05/14 04:08:33;;;;;;;85.10;34.03;;;10.20;99.90;;;8.79;100.00;99904.38;4931334;28;20155;-80
2021/05/14 04:11:18;;;;;;;90.45;34.55;;;10.50;99.90;;;8.92;100.00;99899.34;4929839;28;20544;-78
2021/05/14 04:16:22;;;;;;;79.88;34.50;;;10.60;99.90;;;9.20;100.00;99896.09;4928184;28;20077;-79
2021/05/14 04:18:45;;;;;;;87.90;34.17;;;10.70;99.90;;;9.28;100.00;99900.91;4931212;28;20052;-79
2021/05/14 04:21:08;;;;;;;77.57;33.72;;;;;;;9.41;100.00;99901.09;4931450;28;20123;-79
2021/05/14 04:23:33;;;;;;;79.70;33.88;;;10.90;99.90;;;9.52;100.00;99901.34;4930354;28;20086;-79
2021/05/14 04:25:56;;;;;;;71.72;29.40;;;11.00;99.90;;;9.65;100.00;99896.25;4929120;28;20051;-82
2021/05/14 04:28:19;;;;;;;74.18;32.15;;;11.10;99.90;;;9.77;100.00;99899.97;4930721;28;20086;-80
2021/05/14 04:30:42;;;;;;;73.22;31.63;;;11.20;99.90;;;9.83;100.00;99889.13;4928833;28;20040;-79
2021/05/14 04:33:05;;;;;;;70.10;31.75;;;;;;;9.82;100.00;99888.25;4929090;28;20048;-80
2021/05/14 04:35:28;;;;;;;68.68;29.73;;;11.20;99.90;;;9.80;100.00;99892.75;4929093;28;20047;-77
2021/05/14 04:37:51;;;;;;;70.20;32.10;;;11.20;99.90;;;9.88;100.00;99897.59;4930633;28;20052;-80
2021/05/14 04:40:15;;;;;;;61.70;28.38;;;;;;;9.79;99.96;99898.13;4932037;28;20047;-79
2021/05/14 04:42:38;;;;;;;63.15;28.55;;;11.20;99.90;;;9.78;99.99;99891.16;4927985;28;20121;-80
2021/05/14 04:45:01;;;;;;;67.38;29.17;;;11.20;99.90;;;9.82;100.00;99901.41;4931465;28;20058;-80
2021/05/14 04:47:24;;;;;;;56.38;23.27;;;11.10;99.90;;;9.68;99.68;99893.47;4928704;28;20037;-77
2021/05/14 04:49:47;;;;;;;61.85;26.55;;;11.10;99.90;;;9.70;100.00;99896.84;4930103;28;20414;-79
2021/05/14 04:52:18;;;;;;;53.88;24.90;;;11.10;99.90;;;9.74;100.00;99901.00;4930137;28;20402;-80
2021/05/14 04:54:41;;;;;;;63.92;27.40;;;11.10;99.90;;;9.74;100.00;99902.75;4929376;28;20223;-79
2021/05/14 04:57:05;;;;;;;54.38;23.08;;;11.10;99.90;;;9.71;99.25;99892.44;4930468;28;20040;-78
2021/05/14 04:59:28;;;;;;;48.67;21.05;;;11.10;99.90;;;9.59;98.54;99894.81;4931753;28;20381;-79
2021/05/14 05:01:51;;;;;;;62.15;24.30;;;11.00;99.90;;;9.59;100.00;99900.09;4935417;28;20184;-79
2021/05/14 05:04:14;;;;;;;59.30;23.85;;;11.00;99.90;;;9.57;100.00;99904.56;4932659;28;20406;-78
2021/05/14 05:06:40;;;;;;;58.20;21.70;;;11.00;99.90;;;9.56;100.00;99894.97;4935202;28;20475;-79
2021/05/14 05:09:04;;;;;;;45.55;21.83;;;11.00;99.90;;;9.61;99.08;99892.09;4933663;28;20040;-77
2021/05/14 05:11:28;;;;;;;61.22;25.15;;;11.00;99.90;;;9.63;98.68;99896.34;4933249;28;20106;-79
2021/05/14 05:13:52;;;;;;;49.67;22.23;;;11.00;99.90;;;9.58;98.89;99897.53;4933630;28;20040;-79
2021/05/14 05:16:15;;;;;;;54.22;21.85;;;10.90;99.90;;;9.48;99.10;99907.72;4934532;28;20441;-78
2021/05/14 05:18:37;;;;;;;56.45;26.05;;;10.90;99.90;;;9.54;99.77;99909.97;4949646;28;20078;-78
2021/05/14 05:21:00;;;;;;;49.45;22.83;;;10.90;99.90;;;9.54;99.51;99914.41;4936916;28;20078;-79
2021/05/14 05:23:23;;;;;;;60.13;26.67;;;11.00;99.90;;;9.63;100.00;99914.75;4933308;28;20052;-78
2021/05/14 05:25:46;;;;;;;60.83;25.67;;;11.00;99.90;;;9.67;99.76;99909.31;4934771;28;20100;-80
2021/05/14 05:28:09;;;;;;;57.45;25.42;;;11.00;99.90;;;9.71;99.94;99914.31;4933763;28;20426;-79
2021/05/14 05:30:33;;;;;;;56.58;23.65;;;;;;;9.72;99.16;99909.88;4934334;28;20513;-78
2021/05/14 05:32:56;;;;;;;66.95;27.02;;;11.20;99.90;;;9.87;99.13;99911.69;4934311;28;20555;-78
2021/05/14 05:35:19;;;;;;;60.28;25.52;;;11.30;99.90;;;9.97;98.07;99915.47;4933355;28;20391;-78
2021/05/14 05:37:42;;;;;;;64.03;24.95;;;11.40;99.90;;;9.97;97.99;99918.09;4934195;28;20060;-78
2021/05/14 05:40:07;;;;;;;60.08;26.02;;;11.30;99.90;;;9.99;97.95;99913.59;4933750;28;20073;-78
2021/05/14 05:42:30;;;;;;;59.83;25.20;;;11.40;99.90;;;10.01;98.29;99918.78;4932587;28;20082;-78
2021/05/14 05:44:53;;;;;;;54.00;22.95;;;11.50;99.90;;;10.19;97.80;99924.75;4932085;28;20047;-80
2021/05/14 05:47:17;;;;;;;56.08;24.38;;;;;;;10.22;98.12;99925.44;4934049;28;20059;-79
2021/05/14 05:49:40;;;;;;;54.25;23.80;;;11.60;99.90;;;10.20;96.94;99927.31;4933820;28;20556;-78
2021/05/14 05:52:03;;;;;;;64.97;25.42;;;11.50;99.90;;;10.14;97.95;99929.44;4934323;28;20487;-79
2021/05/14 05:54:26;;;;;;;61.28;26.52;;;11.60;99.90;;;10.25;96.97;99929.66;4932239;28;20491;-80
2021/05/14 05:56:50;;;;;;;53.92;23.95;;;11.50;99.90;;;10.04;97.26;99940.50;4934396;28;20105;-78
2021/05/14 05:59:16;;;;;;;49.88;22.73;;;11.40;99.90;;;9.96;97.78;99934.81;4940949;28;20043;-81
2021/05/14 06:01:39;;;;;;;49.00;23.08;;;11.40;99.90;;;10.08;97.87;99943.78;4943394;28;20051;-79
2021/05/14 06:04:03;;;;;;;47.17;24.27;;;11.40;99.90;;;10.15;97.45;99944.28;4938017;28;20044;-79
2021/05/14 06:06:28;;;;;;;50.72;23.52;;;11.60;99.90;;;10.36;96.87;99937.81;4944236;28;20048;-79
2021/05/14 06:08:51;;;;;;;54.70;24.55;;;11.80;99.90;;;10.50;96.08;99934.38;4933130;28;20051;-78
2021/05/14 06:11:14;;;;;;;48.85;21.08;;;11.90;99.90;;;10.50;94.33;99937.03;4931610;28;20479;-79
2021/05/14 06:13:36;;;;;;;50.13;22.35;;;12.00;99.90;;;10.86;94.93;99934.00;4933400;28;20044;-78
2021/05/14 06:16:01;;;;;;;44.70;21.27;;;12.10;99.90;;;11.08;93.68;99927.41;4932678;28;20074;-79
2021/05/14 06:18:25;;;;;;;51.00;20.93;;;12.50;99.90;;;11.22;91.53;99930.03;4932004;28;20037;-79
2021/05/14 06:20:48;;;;;;;48.15;21.85;;;12.70;99.90;;;11.76;91.62;99928.44;4934334;28;20052;-79
2021/05/14 06:23:12;;;;;;;39.83;21.38;;;13.60;99.90;;;12.51;86.72;99928.81;4922289;28;20032;-79
2021/05/14 06:25:35;;;;;;;36.03;18.33;;;13.60;99.90;;;12.19;86.26;99934.44;4932880;28;20048;-78
2021/05/14 06:27:59;;;;;;;34.97;18.55;;;13.30;99.90;;;11.93;87.84;99928.22;4932129;28;20055;-78
2021/05/14 06:30:22;;;;;;;35.38;17.58;;;13.60;99.90;;;12.54;85.79;99933.88;4931403;28;20071;-78
2021/05/14 06:32:45;;;;;;;30.70;16.13;;;13.80;99.90;;;12.57;84.98;99928.41;4933898;28;20590;-78
2021/05/14 06:35:11;;;;;;;31.85;17.08;;;13.70;99.90;;;12.26;85.55;99927.78;4931464;28;20044;-79
2021/05/14 06:37:37;;;;;;;;;;;13.40;99.90;;;11.95;87.30;99936.88;4933394;28;20051;-78
2021/05/14 06:40:00;;;;;;;33.88;17.52;;;13.30;99.90;;;12.07;87.30;99941.38;4932296;28;19959;-79
2021/05/14 06:42:22;;;;;;;31.10;15.32;;;13.80;99.90;;;12.69;83.29;99938.13;4934277;28;20472;-79
2021/05/14 06:44:45;;;;;;;26.58;14.02;;;14.10;99.90;;;12.69;81.84;99932.84;4931597;28;20048;-82
2021/05/14 06:47:08;;;;;;;32.78;14.93;;;14.20;99.90;;;13.35;81.89;99938.03;4932678;28;20581;-79
2021/05/14 06:49:31;;;;;;;26.25;13.60;;;15.20;99.90;;;14.35;75.53;99930.78;4933132;28;20534;-79
2021/05/14 06:51:54;;;;;;;23.67;13.38;;;15.90;99.90;;;14.86;74.79;99930.47;4931142;28;20573;-80
2021/05/14 06:54:18;;;;;;;24.70;11.98;;;16.20;99.90;;;15.14;71.36;99934.44;4933324;28;20059;-79
2021/05/14 06:56:41;;;;;;;26.45;13.38;;;16.60;99.90;;;15.52;72.59;99935.03;4930913;28;20055;-78
2021/05/14 06:59:05;;;;;;;21.42;13.05;;;17.20;99.90;;;16.43;68.41;99944.44;4930700;28;20105;-78
2021/05/14 07:01:27;;;;;;;25.00;13.18;;;17.70;99.90;;;17.21;66.38;99934.31;4932618;28;20172;-80
2021/05/14 07:03:52;;;;;;;25.02;12.20;;;17.80;99.90;;;16.94;66.46;99940.22;4932137;28;20047;-78
2021/05/14 07:06:17;;;;;;;20.42;11.18;;;17.70;99.90;;;16.46;66.88;99948.66;4931093;28;20113;-78
2021/05/14 07:08:39;;;;;;;22.52;12.30;;;17.60;99.90;;;16.68;67.62;99948.56;4931515;28;20119;-77
2021/05/14 07:11:03;;;;;;;20.58;10.85;;;17.00;99.90;;;16.24;66.78;99944.28;4931655;28;20047;-79
2021/05/14 07:13:27;;;;;;;17.50;10.82;;;17.20;99.90;;;16.34;67.46;99943.41;4931733;28;20048;-79
2021/05/14 07:15:50;;;;;;;17.20;10.60;;;17.50;99.90;;;17.39;64.33;99937.19;4930712;28;20051;-80
2021/05/14 07:18:13;;;;;;;22.58;12.38;;;18.50;99.90;;;18.43;60.61;99940.31;4931064;28;20482;-77
2021/05/14 07:20:36;;;;;;;22.20;11.20;;;18.80;99.90;;;17.37;61.41;99939.97;4930430;28;20048;-81
2021/05/14 07:22:59;;;;;;;19.42;10.70;;;17.00;99.90;;;15.24;69.83;99950.47;4931090;28;20050;-80
2021/05/14 07:25:22;;;;;;;20.05;11.60;;;16.20;99.90;;;14.88;71.15;99947.09;4946240;28;20518;-79
2021/05/14 07:27:47;;;;;;;23.10;11.80;;;16.60;99.90;;;16.20;68.95;99936.59;4933285;28;20051;-80
2021/05/14 07:30:13;;;;;;;19.52;11.57;;;17.50;99.90;;;17.70;64.83;99935.31;4931287;28;20043;-78
2021/05/14 07:32:36;;;;;;;20.17;11.02;;;18.10;99.90;;;17.32;62.56;99939.56;4930718;28;20055;-81
2021/05/14 07:34:59;;;;;;;20.25;10.85;;;17.80;99.90;;;17.06;63.33;99944.44;4930866;28;20051;-79
2021/05/14 07:37:22;;;;;;;18.58;10.95;;;17.80;99.90;;;17.09;65.46;99946.03;4928759;28;21960;-83
2021/05/14 07:39:45;;;;;;;18.85;11.05;;;17.60;99.90;;;16.48;63.48;99947.56;4918702;28;20051;-78
2021/05/14 07:42:08;;;;;;;19.20;11.00;;;17.20;99.90;;;16.26;65.35;99950.31;4926254;28;20035;-78
2021/05/14 07:44:32;;;;;;;21.52;12.60;;;17.30;99.90;;;16.68;66.68;99945.88;4932675;28;20044;-79
2021/05/14 07:46:55;;;;;;;20.77;11.43;;;17.60;99.90;;;16.83;65.43;99948.25;4928355;28;20378;-78
2021/05/14 07:49:18;;;;;;;20.27;10.65;;;17.70;99.90;;;17.47;64.02;99940.00;4946507;28;20071;-78
2021/05/14 07:51:41;;;;;;;19.85;10.75;;;;;;;17.19;62.84;99947.75;4932222;28;20396;-77
2021/05/14 07:54:05;;;;;;;18.05;11.02;;;17.90;99.90;;;17.59;61.77;99938.94;4931805;28;20056;-78
2021/05/14 07:56:28;;;;;;;15.45;9.98;;;;;;;17.43;62.76;99934.13;4929806;28;20056;-79
2021/05/14 07:58:51;;;;;;;17.42;10.52;;;18.00;99.90;;;17.59;61.84;99940.75;4931472;28;20044;-78
2021/05/14 08:01:15;;;;;;;19.63;10.48;;;18.30;99.90;;;18.09;61.95;99935.41;4930841;28;20047;-79
2021/05/14 08:03:38;;;;;;;18.90;10.27;;;;;;;18.24;59.19;99931.34;4928651;28;20105;-79
2021/05/14 08:06:01;;;;;;;17.13;10.23;;;18.40;99.90;;;18.15;60.31;99936.69;4930529;28;20510;-81
2021/05/14 08:08:24;;;;;;;24.52;11.00;;;18.10;99.90;;;17.98;61.64;99938.19;4931096;28;20058;-81
2021/05/14 08:10:48;;;;;;;18.10;10.32;;;18.40;99.90;;;18.29;58.28;99936.25;4930558;28;20036;-79
2021/05/14 08:13:12;;;;;;;16.42;9.93;;;18.60;99.90;;;19.37;58.12;99935.06;4929985;28;20044;-82
2021/05/14 08:15:35;;;;;;;14.48;7.95;;;19.60;99.90;;;20.08;51.47;99933.53;4926083;28;20036;-79
2021/05/14 08:17:59;;;;;;;16.92;10.05;;;19.90;99.90;;;19.88;52.56;99936.34;4931647;28;20040;-77
2021/05/14 08:20:22;;;;;;;17.50;9.43;;;19.80;99.90;;;20.74;52.64;99936.81;4931017;28;20446;-78
2021/05/14 08:22:45;;;;;;;18.40;9.63;;;20.20;99.90;;;21.10;52.73;99942.88;4902314;28;20052;-79
2021/05/14 08:25:11;;;;;;;15.32;9.35;;;20.40;99.90;;;21.02;49.53;99937.50;4931561;28;20028;-79
2021/05/14 08:27:34;;;;;;;16.58;9.73;;;20.00;99.90;;;20.08;54.91;99937.03;4929938;28;20036;-78
2021/05/14 08:29:58;;;;;;;17.00;8.40;;;20.00;99.90;;;19.50;53.72;99936.53;4930976;28;20043;-79
2021/05/14 08:32:22;;;;;;;14.20;8.75;;;19.30;99.90;;;18.94;58.71;99946.31;4930001;28;20044;-79
2021/05/14 08:34:46;;;;;;;17.80;10.18;;;19.50;99.90;;;19.02;55.11;99943.75;4930443;28;20048;-79
2021/05/14 08:37:09;;;;;;;18.25;9.93;;;19.60;99.90;;;19.36;53.27;99938.72;4930319;28;20048;-78
2021/05/14 08:39:31;;;;;;;16.02;8.70;;;19.80;99.90;;;19.76;52.75;99934.91;4929418;28;20058;-78
2021/05/14 08:41:54;;;;;;;17.65;9.80;;;20.20;99.90;;;19.91;52.99;99937.88;4931608;28;20048;-79
2021/05/14 08:44:17;;;;;;;17.60;9.65;;;20.10;99.90;;;19.66;55.80;99936.75;4930461;28;20052;-78
2021/05/14 08:46:41;;;;;;;16.40;9.90;;;20.10;99.90;;;19.52;55.16;99940.72;4931359;28;20063;-78
2021/05/14 08:49:07;;;;;;;16.00;10.15;;;19.60;99.90;;;18.55;58.88;99947.19;4929049;28;20138;-79
2021/05/14 08:51:31;;;;;;;17.23;9.07;;;19.80;99.90;;;19.05;55.54;99941.66;4929447;28;20052;-79
2021/05/14 08:54:00;;;;;;;18.05;9.93;;;20.00;99.90;;;19.14;57.62;99944.44;4930977;28;20101;-79
2021/05/14 08:56:23;;;;;;;14.00;9.50;;;20.10;99.90;;;19.29;57.34;99939.44;4929539;28;20044;-78
2021/05/14 08:58:46;;;;;;;16.92;8.13;;;19.70;99.90;;;18.39;58.20;99949.59;4926042;28;20411;-78
2021/05/14 09:01:11;;;;;;;16.50;8.80;;;19.70;99.90;;;18.32;57.17;99959.13;4910622;28;20109;-80
2021/05/14 09:04:07;;;;;;;14.73;7.00;;;19.90;99.90;;;19.23;53.91;99963.06;4895116;28;20434;-78
2021/05/14 09:07:02;;;;;;;11.35;6.88;;;20.50;99.90;;;19.74;54.95;99950.22;4883592;28;20052;-79
2021/05/14 09:09:28;;;;;;;14.60;7.25;;;20.50;99.90;;;19.77;57.07;99957.09;4898925;28;20051;-79
2021/05/14 09:11:52;;;;;;;20.50;9.05;;;20.10;99.90;;;18.86;57.15;99963.03;4898661;28;20403;-77
2021/05/14 09:14:46;;;;;;;18.80;7.57;;;19.90;99.90;;;18.94;58.09;99963.16;4902522;28;20406;-81
2021/05/14 09:17:12;;;;;;;16.13;8.10;;;20.00;99.90;;;18.22;56.46;99962.59;4896019;28;20051;-79
2021/05/14 09:19:38;;;;;;;12.63;7.32;;;19.80;99.90;;;19.26;56.75;99967.25;4909309;28;20483;-79
2021/05/14 09:22:16;;;;;;;15.77;7.43;;;19.80;99.90;;;19.03;54.80;99969.47;4910234;28;20052;-78
2021/05/14 09:24:41;;;;;;;17.98;7.78;;;19.70;99.90;;;18.54;58.68;99966.81;4911063;28;20449;-80
2021/05/14 09:27:29;;;;;;;15.52;7.40;;;19.40;99.90;;;18.72;56.82;99966.94;4906462;28;20130;-78
2021/05/14 09:29:53;;;;;;;18.02;8.25;;;20.10;99.90;;;19.52;55.29;99962.09;4908808;28;20044;-82
2021/05/14 09:32:24;;;;;;;18.40;8.02;;;20.00;99.90;;;19.25;56.50;99978.94;4916090;28;20097;-83
2021/05/14 09:34:50;;;;;;;14.55;8.43;;;19.40;99.90;;;18.20;59.28;99979.72;4939935;28;20487;-81
2021/05/14 09:37:17;;;;;;;15.55;8.27;;;18.60;99.90;;;17.01;63.83;99992.72;4925885;28;20044;-79
2021/05/14 09:39:45;;;;;;;17.00;8.68;;;18.10;99.90;;;16.57;64.73;99989.31;4907070;28;20056;-80
2021/05/14 09:42:15;;;;;;;16.52;9.15;;;17.90;99.90;;;16.86;65.79;99987.88;4909801;28;20048;-78
2021/05/14 09:44:57;;;;;;;15.05;8.23;;;17.70;99.90;;;16.59;69.90;99981.22;4898464;28;20403;-78
2021/05/14 09:47:40;;;;;;;14.63;9.32;;;17.50;99.90;;;16.24;65.42;99982.34;4904913;28;20109;-79
2021/05/14 09:50:45;;;;;;;15.85;9.10;;;17.50;99.90;;;16.64;69.56;99994.13;4911071;28;20048;-79
2021/05/14 09:53:12;;;;;;;15.60;8.43;;;17.50;99.90;;;16.10;67.91;99993.22;4909070;28;20079;-79
2021/05/14 09:55:37;;;;;;;17.98;9.00;;;17.20;99.90;;;15.82;70.67;99997.28;4904395;28;20040;-77
2021/05/14 09:58:32;;;;;;;14.67;9.23;;;17.00;99.90;;;16.07;70.85;99994.34;4896921;28;20052;-79
2021/05/14 10:01:19;;;;;;;17.38;8.65;;;17.20;99.90;;;16.51;68.21;99999.63;4895780;28;20051;-79
2021/05/14 10:04:25;;;;;;;19.65;8.88;;;17.40;99.90;;;16.57;66.83;99993.81;4900893;28;20056;-80
2021/05/14 10:06:50;;;;;;;14.90;8.48;;;;;;;17.17;68.75;99994.06;4912004;28;20048;-79